Latest Weather Observations for Gladstone

IDQ60801

Issued at 3:32 pm EST Friday 29 July 2016 (issued every 30 minutes, with the page automatically refreshed every 10 minutes)

About weather observations | Map of weather stations | Latest weather observations for QLD | Other Formats
Station Details ID: 039123 Name: GLADSTONE RADAR Lat: -23.86 Lon: 151.26 Height: 74.5 m
Data from the previous 72 hours. | See also: Recent months at Gladstone
Date/Time
EST
Temp
°C
App
Temp
°C
Dew
Point
°C
Rel
Hum
%
Delta-T
°C
Wind Press
QNH
hPa
Press
MSL
hPa
Rain since
9am
mm
Dir  Spd
km/h
Gust
km/h
Spd
kts
Gust
kts
29/03:30pm 21.7 17.7 10.5 49 6.1 E 22 28 12 15 1019.2 1019.1 0.0
29/03:00pm 22.3 19.0 11.7 51 5.9 ENE 20 28 11 15 1019.1 1019.0 0.0
29/02:30pm 22.9 19.9 11.9 50 6.2 ENE 19 30 10 16 1019.2 1019.1 0.0
29/02:00pm 22.9 19.3 10.7 46 6.7 ENE 20 30 11 16 1019.2 1019.1 0.0
29/01:30pm 23.1 19.8 11.5 48 6.5 E 20 33 11 18 1019.7 1019.5 0.0
29/01:00pm 23.1 19.4 10.2 44 7.1 E 20 32 11 17 1020.2 1020.0 0.0
29/12:30pm 22.8 18.5 10.6 46 6.7 ESE 24 35 13 19 1020.5 1020.3 0.0
29/12:00pm 22.5 19.1 11.3 49 6.2 ESE 20 32 11 17 1021.2 1021.0 0.0
29/11:30am 22.3 18.9 11.1 49 6.2 ESE 20 32 11 17 1021.6 1021.4 0.0
29/11:00am 21.5 18.7 11.5 53 5.6 SE 17 24 9 13 1022.2 1022.0 0.0
29/10:30am 21.8 19.4 11.5 52 5.8 SE 15 26 8 14 1022.7 1022.5 0.0
29/10:00am 20.8 17.9 10.9 53 5.4 SE 17 30 9 16 1022.9 1022.7 0.0
29/09:30am 19.7 16.1 10.7 56 4.9 SSE 20 33 11 18 1023.0 1022.8 0.0
29/09:00am 17.8 15.7 9.9 60 4.2 S 11 19 6 10 1022.9 1022.7 0.0
29/08:30am 16.8 14.5 9.0 60 4.0 SSW 11 19 6 10 1022.8 1022.6 0.0
29/08:00am 16.0 13.2 8.5 61 3.8 SSW 13 20 7 11 1022.6 1022.4 0.0
29/07:30am 15.5 12.3 8.5 63 3.6 SSW 15 20 8 11 1022.4 1022.2 0.0
29/07:00am 14.7 11.4 8.0 64 3.3 SSW 15 20 8 11 1022.2 1022.0 0.0
29/06:30am 13.6 10.5 7.2 65 3.1 SW 13 17 7 9 1021.7 1021.5 0.0
29/06:00am 14.2 11.0 7.0 62 3.5 SSW 13 19 7 10 1021.5 1021.3 0.0
29/05:30am 14.4 10.9 7.0 61 3.6 SSW 15 19 8 10 1021.3 1021.1 0.0
29/05:00am 14.4 10.8 6.7 60 3.7 SSW 15 22 8 12 1021.1 1020.9 0.0
29/04:30am 14.2 10.5 6.3 59 3.8 SW 15 19 8 10 1020.9 1020.7 0.0
29/04:00am 13.9 10.2 6.5 61 3.6 SW 15 20 8 11 1020.8 1020.6 0.0
29/03:30am 15.2 11.4 7.5 60 3.8 SSW 17 20 9 11 1020.8 1020.6 0.0
29/03:00am 15.6 11.7 7.1 57 4.2 SSW 17 22 9 12 1020.9 1020.7 0.0
29/02:30am 15.8 11.8 6.5 54 4.6 S 17 22 9 12 1021.2 1021.0 0.0
29/02:00am 15.9 11.7 5.8 51 4.9 S 17 20 9 11 1021.4 1021.2 0.0
29/01:30am 15.9 11.5 4.9 48 5.2 S 17 22 9 12 1021.7 1021.5 0.0
29/01:00am 16.2 11.9 5.2 48 5.2 S 17 20 9 11 1022.0 1021.8 0.0
29/12:30am 16.6 12.5 4.6 45 5.7 S 15 20 8 11 1022.0 1021.8 0.0
29/12:00am 17.1 13.1 4.8 44 5.8 SSE 15 20 8 11 1022.2 1022.0 0.0
 
Date/Time
EST
Temp
°C
App
Temp
°C
Dew
Point
°C
Rel
Hum
%
Delta-T
°C
Wind Press
QNH
hPa
Press
MSL
hPa
Rain since
9am
mm
Dir  Spd
km/h
Gust
km/h
Spd
kts
Gust
kts
28/11:30pm 17.3 13.4 5.3 45 5.8 SSE 15 20 8 11 1022.3 1022.1 0.0
28/11:00pm 17.3 12.9 4.9 44 5.9 SSE 17 20 9 11 1022.5 1022.3 0.0
28/10:30pm 17.3 13.2 4.6 43 6.0 SSE 15 20 8 11 1022.8 1022.6 0.0
28/10:00pm 17.3 13.6 4.3 42 6.1 SSE 13 19 7 10 1023.0 1022.8 0.0
28/09:30pm 17.0 13.0 4.7 44 5.9 SSE 15 20 8 11 1023.1 1022.9 0.0
28/09:00pm 16.7 12.9 5.6 48 5.3 SSE 15 19 8 10 1022.9 1022.7 0.0
28/08:30pm 17.1 13.5 6.9 51 5.1 SSE 15 19 8 10 1022.9 1022.7 0.0
28/08:00pm 17.3 13.2 6.2 48 5.4 SSE 17 20 9 11 1022.7 1022.5 0.0
28/07:30pm 17.6 14.0 6.8 49 5.4 SSE 15 20 8 11 1022.6 1022.4 0.0
28/07:00pm 18.1 13.8 6.9 48 5.6 SE 19 26 10 14 1022.4 1022.2 0.0
28/06:30pm 17.9 14.0 7.0 49 5.5 SE 17 24 9 13 1022.0 1021.8 0.0
28/06:00pm 17.7 15.2 8.0 53 4.9 ESE 11 19 6 10 1021.8 1021.6 0.0
28/05:30pm 17.8 14.4 7.8 52 5.1 E 15 20 8 11 1021.5 1021.3 0.0
28/05:00pm 18.4 14.5 7.2 48 5.6 E 17 22 9 12 1021.3 1021.1 0.0
28/04:30pm 19.3 15.2 7.7 47 6.0 ENE 19 24 10 13 1021.0 1020.8 0.0
28/04:00pm 19.8 16.1 7.9 46 6.1 ENE 17 24 9 13 1020.7 1020.5 0.0
28/03:30pm 20.8 17.3 7.4 42 6.9 ENE 15 22 8 12 1020.6 1020.4 0.0
28/03:00pm 21.4 17.7 6.1 37 7.7 E 15 22 8 12 1020.7 1020.5 0.0
28/02:30pm 21.3 17.2 6.0 37 7.7 ENE 17 24 9 13 1020.8 1020.6 0.0
28/02:00pm 21.8 19.0 6.9 38 7.6 ESE 11 20 6 11 1021.0 1020.8 0.0
28/01:30pm 20.8 18.4 5.2 36 7.7 SSE 7 19 4 10 1021.3 1021.1 0.0
28/01:00pm 19.8 16.5 4.3 36 7.4 SSE 11 22 6 12 1021.7 1021.5 0.0
28/12:30pm 19.5 14.9 3.6 35 7.5 S 17 32 9 17 1022.1 1021.9 0.0
28/12:00pm 18.9 14.4 4.3 38 7.0 SSW 17 30 9 16 1022.6 1022.4 0.0
28/11:30am 18.4 13.4 4.6 40 6.6 S 20 33 11 18 1023.1 1022.9 0.0
28/11:00am 18.0 13.1 3.9 39 6.6 S 19 32 10 17 1023.5 1023.3 0.0
28/10:30am 17.6 13.8 3.9 40 6.4 S 13 26 7 14 1023.8 1023.6 0.0
28/10:00am 17.6 12.6 3.5 39 6.5 SSE 19 33 10 18 1024.0 1023.8 0.0
28/09:30am 16.7 12.2 4.1 43 5.9 S 17 39 9 21 1024.2 1024.0 0.0
28/09:00am 16.2 12.0 3.6 43 5.8 S 15 30 8 16 1024.2 1024.0 0.0
28/08:30am 15.8 12.0 3.9 45 5.5 SSE 13 24 7 13 1024.3 1024.1 0.0
28/08:00am 15.5 11.3 3.9 46 5.3 S 15 32 8 17 1024.0 1023.8 0.0
28/07:30am 14.4 10.7 4.7 52 4.5 S 13 20 7 11 1023.6 1023.4 0.0
28/07:00am 14.0 10.2 4.0 51 4.6 SSW 13 17 7 9 1023.2 1023.0 0.0
28/06:30am 14.2 10.0 3.7 49 4.8 S 15 17 8 9 1022.8 1022.6 0.0
28/06:00am 14.2 10.0 3.7 49 4.8 S 15 19 8 10 1022.3 1022.1 0.0
28/05:30am 14.2 10.4 3.7 49 4.8 S 13 17 7 9 1022.1 1021.9 0.0
28/05:00am 14.7 10.4 3.5 47 5.1 S 15 20 8 11 1021.9 1021.7 0.0
28/04:30am 15.0 10.8 3.8 47 5.1 S 15 20 8 11 1021.7 1021.5 0.0
28/04:00am 15.3 11.4 3.5 45 5.4 SSE 13 19 7 10 1021.6 1021.4 0.0
28/03:30am 15.7 11.9 3.8 45 5.5 SSE 13 17 7 9 1021.7 1021.5 0.0
28/03:00am 16.0 12.4 2.8 41 6.0 S 11 15 6 8 1021.8 1021.6 0.0
28/02:30am 16.4 12.0 2.8 40 6.2 S 15 22 8 12 1021.6 1021.4 0.0
28/02:00am 16.6 12.3 3.0 40 6.2 S 15 20 8 11 1021.7 1021.5 0.0
28/01:30am 16.3 11.6 3.4 42 5.9 S 17 20 9 11 1021.9 1021.7 0.0
28/01:00am 16.6 12.8 3.7 42 6.0 S 13 20 7 11 1022.2 1022.0 0.0
28/12:30am 16.6 12.5 4.3 44 5.8 SSE 15 20 8 11 1022.1 1021.9 0.0
28/12:00am 16.5 12.7 3.9 43 5.9 SSW 13 17 7 9 1022.0 1021.8 0.0
 
Date/Time
EST
Temp
°C
App
Temp
°C
Dew
Point
°C
Rel
Hum
%
Delta-T
°C
Wind Press
QNH
hPa
Press
MSL
hPa
Rain since
9am
mm
Dir  Spd
km/h
Gust
km/h
Spd
kts
Gust
kts
27/11:30pm 16.6 13.0 4.9 46 5.6 SSW 13 19 7 10 1021.8 1021.6 0.0
27/11:00pm 16.6 13.4 5.3 47 5.4 SW 11 15 6 8 1021.8 1021.6 0.0
27/10:30pm 17.3 13.5 5.6 46 5.7 SW 15 20 8 11 1021.8 1021.6 0.0
27/10:00pm 16.8 13.5 6.3 50 5.1 SW 13 19 7 10 1021.4 1021.2 0.0
27/09:30pm 16.8 13.9 6.3 50 5.2 WSW 11 17 6 9 1021.2 1021.0 0.0
27/09:00pm 17.3 14.0 6.2 48 5.4 WSW 13 19 7 10 1021.0 1020.8 0.0
27/08:30pm 17.4 14.5 6.3 48 5.5 WSW 11 19 6 10 1020.6 1020.4 0.0
27/08:00pm 17.7 14.0 6.3 47 5.6 WSW 15 24 8 13 1020.3 1020.1 0.0
27/07:30pm 18.3 14.6 6.5 46 5.9 WSW 15 26 8 14 1020.0 1019.8 0.0
27/07:00pm 18.7 15.4 6.5 45 6.1 WSW 13 22 7 12 1019.5 1019.3 0.0
27/06:30pm 19.5 16.2 6.3 42 6.6 WSW 13 24 7 13 1019.2 1019.1 0.0
27/06:00pm 20.4 17.5 6.7 41 6.9 WSW 11 20 6 11 1018.7 1018.6 0.0
27/05:30pm 21.1 18.8 7.3 41 7.1 WSW 9 15 5 8 1018.3 1018.2 0.0
27/05:00pm 22.1 19.7 7.1 38 7.7 WSW 9 17 5 9 1018.1 1018.0 0.0
27/04:30pm 22.8 20.7 6.6 35 8.3 WSW 7 19 4 10 1017.6 1017.5 0.0
27/04:00pm 22.6 22.6 11.0 48 6.4 ESE 2 9 1 5 1017.2 1017.1 0.0
27/03:30pm 23.6 22.6 11.0 45 7.0 SSE 7 13 4 7 1016.9 1016.8 0.0
27/03:00pm 24.3 23.1 7.9 35 8.7 NW 4 13 2 7 1016.9 1016.8 0.0
27/02:30pm 25.5 23.5 6.2 29 10.0 SW 6 11 3 6 1016.9 1016.8 0.0
27/02:00pm 24.9 22.6 5.7 29 9.8 WSW 7 13 4 7 1017.0 1016.9 0.0
27/01:30pm 24.9 22.4 8.0 34 9.0 SW 11 19 6 10 1017.3 1017.2 0.0
27/01:00pm 25.0 22.7 8.9 36 8.7 WSW 11 19 6 10 1017.5 1017.4 0.0
27/12:30pm 25.0 23.9 8.5 35 8.9 W 4 13 2 7 1017.9 1017.8 0.0
27/12:00pm 24.5 23.2 7.6 34 8.9 SW 4 7 2 4 1018.2 1018.1 0.0
27/11:30am 23.4 21.9 10.5 44 7.1 WSW 9 13 5 7 1019.0 1018.9 0.0
27/11:00am 22.5 20.7 7.9 39 7.7 SW 7 15 4 8 1019.4 1019.2 0.0
27/10:30am 21.9 20.5 11.0 50 6.0 SW 9 17 5 9 1019.9 1019.7 0.0
27/10:00am 20.8 20.5 11.4 55 5.2 WSW 4 13 2 7 1020.4 1020.2 0.0
27/09:30am 19.4 18.9 11.9 62 4.2 WSW 6 11 3 6 1020.3 1020.1 0.0
27/09:00am 18.5 17.2 11.3 63 3.9 WSW 9 13 5 7 1020.3 1020.1 0.0
27/08:30am 17.4 15.4 10.1 62 3.9 WSW 11 22 6 12 1020.3 1020.1 0.0
27/08:00am 17.0 15.3 9.9 63 3.7 WSW 9 17 5 9 1019.9 1019.7 0.0
27/07:30am 16.4 14.7 9.8 65 3.5 SW 9 15 5 8 1019.5 1019.3 0.0
27/07:00am 15.8 13.9 9.0 64 3.5 SW 9 15 5 8 1019.4 1019.2 0.0
27/06:30am 14.7 12.2 8.0 64 3.4 SW 11 19 6 10 1019.0 1018.9 0.0
27/06:00am 15.1 12.7 8.8 66 3.2 SW 11 13 6 7 1018.8 1018.7 0.0
27/05:30am 15.6 14.4 10.4 71 2.7 SW 7 9 4 5 1018.5 1018.4 0.0
27/05:00am 15.1 13.2 9.0 67 3.1 SW 9 13 5 7 1018.3 1018.2 0.0
27/04:30am 15.1 12.8 9.0 67 3.1 SW 11 15 6 8 1018.4 1018.3 0.0
27/04:00am 15.9 14.2 10.0 68 3.1 WSW 9 11 5 6 1018.3 1018.2 0.0
27/03:30am 15.7 14.0 9.8 68 3.1 SW 9 13 5 7 1018.5 1018.4 0.0
27/03:00am 15.7 13.9 9.6 67 3.2 WSW 9 11 5 6 1018.7 1018.6 0.0
27/02:30am 16.7 16.0 11.4 71 2.9 SW 6 7 3 4 1018.7 1018.6 0.0
27/02:00am 17.3 17.5 10.7 65 3.5 CALM 0 0 0 0 1018.6 1018.5 0.0
27/01:30am 17.3 17.7 11.1 67 3.4 CALM 0 0 0 0 1018.9 1018.8 0.0
27/01:00am 17.0 17.4 11.1 68 3.2 CALM 0 0 0 0 1018.9 1018.8 0.0
27/12:30am 18.0 17.0 11.1 64 3.7 SE 7 7 4 4 1019.0 1018.9 0.0
27/12:00am 18.0 16.7 11.3 65 3.6 SSE 9 11 5 6 1018.9 1018.8 0.0
 
Date/Time
EST
Temp
°C
App
Temp
°C
Dew
Point
°C
Rel
Hum
%
Delta-T
°C
Wind Press
QNH
hPa
Press
MSL
hPa
Rain since
9am
mm
Dir  Spd
km/h
Gust
km/h
Spd
kts
Gust
kts
26/11:30pm 17.7 16.5 11.5 67 3.4 S 9 11 5 6 1018.9 1018.8 0.0
26/11:00pm 18.0 17.0 12.2 69 3.2 SSE 9 11 5 6 1018.9 1018.8 0.0
26/10:30pm 17.7 16.6 13.0 74 2.6 S 11 15 6 8 1019.0 1018.9 0.0
26/10:00pm 17.7 17.5 13.6 77 2.3 S 7 11 4 6 1019.1 1019.0 0.0
26/09:30pm 18.2 18.3 13.9 76 2.5 SE 6 9 3 5 1019.0 1018.9 0.0
26/09:00pm 18.2 19.6 14.5 79 2.1 CALM 0 4 0 2 1018.7 1018.6 0.0
26/08:30pm 17.6 18.9 14.1 80 2.0 CALM 0 0 0 0 1018.5 1018.4 0.0
26/08:00pm 17.6 17.8 14.3 81 1.9 ENE 6 7 3 4 1018.4 1018.3 0.0
26/07:30pm 17.6 17.6 14.1 80 2.0 ENE 7 9 4 5 1018.2 1018.1 0.0
26/07:00pm 18.0 17.6 14.1 78 2.2 ENE 9 11 5 6 1017.9 1017.8 0.0
26/06:30pm 18.2 17.7 13.7 75 2.6 ENE 9 15 5 8 1017.4 1017.3 0.0
26/06:00pm 18.5 17.4 13.1 71 3.0 NE 11 17 6 9 1017.0 1016.9 0.0
26/05:30pm 18.9 17.7 12.9 68 3.4 ENE 11 15 6 8 1016.8 1016.7 0.0
26/05:00pm 19.8 18.4 12.1 61 4.3 ENE 11 17 6 9 1016.6 1016.5 0.0
26/04:30pm 21.3 19.9 12.2 56 5.1 ENE 11 17 6 9 1016.4 1016.3 0.0
26/04:00pm 22.4 20.0 10.2 46 6.7 ENE 13 19 7 10 1016.4 1016.3 0.0

Other Formats:

Comma delimited format used in spreadsheet applications
http://www.bom.gov.au/fwo/IDQ60801/IDQ60801.94380.axf

JavaScript Object Notation format (JSON) in row-major order
http://www.bom.gov.au/fwo/IDQ60801/IDQ60801.94380.json